Time;durP1;ratioP1;P1;durP2;ratioP2;P2;SDS_P1;SDS_P2;PMS_P1;PMS_P2;Temp;Humidity;BMP_temperature;BMP_pressure;BME280_temperature;BME280_humidity;BME280_pressure;Samples;Min_cycle;Max_cycle;Signal;HPM_P1;HPM_P2
2023/05/23 00:01:15;;;;;;;18.02;12.90;;;;;;;11.51;66.91;100317.70;1795239;79;25646;-61
2023/05/23 00:03:41;;;;;;;18.80;12.65;;;;;;;11.47;67.14;100317.54;1752668;80;25820;-59
2023/05/23 00:06:07;;;;;;;20.25;12.33;;;;;;;11.44;67.27;100318.19;1800312;78;25828;-59
2023/05/23 00:08:34;;;;;;;19.55;13.03;;;;;;;11.42;67.02;100313.62;1806523;78;27340;-59
2023/05/23 00:11:00;;;;;;;22.20;12.50;;;;;;;11.39;67.38;100315.06;1791208;79;25586;-60
2023/05/23 00:13:27;;;;;;;18.50;12.47;;;;;;;11.38;67.75;100316.73;1790569;78;25488;-60
2023/05/23 00:15:53;;;;;;;17.45;11.57;;;;;;;11.33;67.57;100308.18;1794090;79;25559;-60
2023/05/23 00:18:19;;;;;;;17.42;12.18;;;;;;;11.29;67.59;100311.28;1788771;78;25392;-60
2023/05/23 00:20:45;;;;;;;19.35;12.20;;;;;;;11.25;67.78;100315.71;1783955;79;28018;-60
2023/05/23 00:23:19;;;;;;;20.68;12.25;;;;;;;11.20;67.86;100305.84;1752072;79;25656;-60
2023/05/23 00:25:51;;;;;;;16.93;11.22;;;;;;;11.15;67.94;100307.33;1788864;78;25523;-60
2023/05/23 00:28:14;;;;;;;18.90;11.97;;;;;;;11.11;67.91;100306.34;1789413;78;27617;-59
2023/05/23 00:30:42;;;;;;;17.48;11.97;;;;;;;11.08;68.22;100306.17;1794313;79;25571;-59
2023/05/23 00:33:08;;;;;;;20.48;12.55;;;;;;;11.01;68.35;100301.20;1787738;78;27564;-59
2023/05/23 00:35:34;;;;;;;20.12;12.33;;;;;;;10.98;68.69;100302.64;1791251;78;25585;-58
2023/05/23 00:38:01;;;;;;;16.02;11.15;;;;;;;10.96;68.82;100304.05;1798654;78;25762;-59
2023/05/23 00:40:27;;;;;;;18.55;13.50;;;;;;;10.92;68.80;100301.16;1768977;80;25777;-60
2023/05/23 00:42:55;;;;;;;17.07;12.33;;;;;;;10.91;69.09;100296.06;1805293;78;25537;-60
2023/05/23 00:45:22;;;;;;;18.90;12.10;;;;;;;10.90;69.24;100299.89;1791260;78;28346;-60
2023/05/23 00:47:50;;;;;;;19.25;11.35;;;;;;;10.90;68.95;100298.54;1785322;78;26125;-60
2023/05/23 00:50:16;;;;;;;21.25;12.20;;;;;;;10.88;69.43;100297.50;1747089;78;25495;-59
2023/05/23 00:52:45;;;;;;;14.68;10.80;;;;;;;10.88;69.06;100296.67;1807368;78;25838;-61
2023/05/23 00:55:12;;;;;;;20.20;11.38;;;;;;;10.86;68.82;100293.48;1806613;79;25555;-60
2023/05/23 00:57:39;;;;;;;15.78;11.18;;;;;;;10.85;69.16;100294.05;1802011;78;27677;-60
2023/05/23 01:00:10;;;;;;;17.23;12.43;;;;;;;10.87;69.14;100292.39;1805427;79;25780;-61
2023/05/23 01:02:46;;;;;;;18.57;13.03;;;;;;;10.86;69.04;100302.39;1805165;79;25463;-63
2023/05/23 01:05:16;;;;;;;20.02;12.68;;;;;;;10.85;69.61;100298.11;1807110;79;25666;-61
2023/05/23 01:07:47;;;;;;;19.00;13.20;;;;;;;10.83;69.57;100297.06;1807292;79;25469;-62
2023/05/23 01:10:16;;;;;;;19.90;12.43;;;;;;;10.79;69.38;100296.63;1800361;78;28050;-62
2023/05/23 01:13:06;;;;;;;18.15;11.83;;;;;;;10.75;69.51;100297.81;1785777;79;26154;-61
2023/05/23 01:15:56;;;;;;;22.07;12.07;;;;;;;10.74;69.97;100297.55;1791235;79;25532;-60
2023/05/23 01:18:29;;;;;;;19.50;12.35;;;;;;;10.71;70.10;100301.44;1783602;78;26325;-60
2023/05/23 01:21:03;;;;;;;17.35;11.83;;;;;;;10.70;70.03;100299.86;1786944;78;25475;-60
2023/05/23 01:24:04;;;;;;;18.85;12.20;;;;;;;10.66;69.95;100305.09;1790036;79;27636;-61
2023/05/23 01:26:42;;;;;;;16.87;12.55;;;;;;;10.61;70.23;100301.95;1789575;79;25632;-61
2023/05/23 01:29:13;;;;;;;17.92;12.05;;;;;;;10.57;70.19;100300.98;1796648;79;25415;-61
2023/05/23 01:31:45;;;;;;;17.75;11.45;;;;;;;10.53;69.97;100296.48;1757734;78;26491;-61
2023/05/23 01:34:13;;;;;;;20.68;12.88;;;;;;;10.51;70.16;100296.00;1788754;78;25783;-60
2023/05/23 01:36:42;;;;;;;21.02;12.68;;;;;;;10.48;70.77;100291.99;1766411;78;27366;-61
2023/05/23 01:39:09;;;;;;;18.50;12.18;;;;;;;10.45;70.92;100289.90;1795292;78;25832;-60
2023/05/23 01:41:37;;;;;;;18.75;11.97;;;;;;;10.43;71.17;100288.85;1790379;78;25575;-61
2023/05/23 01:44:04;;;;;;;20.97;12.25;;;;;;;10.41;71.25;100287.02;1788930;78;25702;-62
2023/05/23 01:46:33;;;;;;;18.85;12.13;;;;;;;10.42;71.57;100284.56;1789430;79;25835;-61
2023/05/23 01:49:02;;;;;;;19.60;12.40;;;;;;;10.41;71.50;100284.31;1757642;79;27510;-60
2023/05/23 01:51:29;;;;;;;19.73;12.15;;;;;;;10.39;71.63;100286.53;1763434;79;25369;-60
2023/05/23 01:53:56;;;;;;;20.45;11.90;;;;;;;10.37;71.24;100286.05;1805367;78;25412;-60
2023/05/23 01:56:23;;;;;;;20.88;11.90;;;;;;;10.35;71.43;100276.09;1796104;79;26435;-60
2023/05/23 01:58:50;;;;;;;18.23;12.47;;;;;;;10.38;71.93;100278.72;1785356;78;25629;-60
2023/05/23 02:01:17;;;;;;;18.23;12.73;;;;;;;10.41;72.06;100277.55;1798107;78;27536;-61
2023/05/23 02:03:43;;;;;;;15.43;10.80;;;;;;;10.43;72.01;100281.30;1793863;78;25683;-60
2023/05/23 02:06:10;;;;;;;21.65;11.55;;;;;;;10.43;72.01;100279.39;1796315;79;25569;-59
2023/05/23 02:08:37;;;;;;;17.67;12.15;;;;;;;10.44;71.83;100280.20;1791755;78;25518;-61
2023/05/23 02:11:04;;;;;;;14.68;11.53;;;;;;;10.45;72.06;100284.48;1792019;78;25695;-61
2023/05/23 02:13:30;;;;;;;17.55;11.63;;;;;;;10.43;71.52;100281.30;1796558;78;27597;-61
2023/05/23 02:15:56;;;;;;;15.38;11.20;;;;;;;10.42;71.70;100274.28;1796348;79;25492;-61
2023/05/23 02:18:25;;;;;;;17.62;11.53;;;;;;;10.37;71.62;100267.12;1793913;78;29709;-60
2023/05/23 02:20:51;;;;;;;16.75;11.63;;;;;;;10.37;71.66;100268.47;1786322;78;25463;-61
2023/05/23 02:23:17;;;;;;;16.65;10.50;;;;;;;10.35;71.69;100264.46;1795808;78;25417;-60
2023/05/23 02:25:43;;;;;;;19.17;11.70;;;;;;;10.36;72.07;100265.51;1788171;78;27415;-60
2023/05/23 02:28:11;;;;;;;21.37;12.50;;;;;;;10.36;72.02;100258.75;1791413;79;27316;-60
2023/05/23 02:30:38;;;;;;;16.48;11.93;;;;;;;10.38;72.17;100257.09;1792318;79;25441;-59
2023/05/23 02:33:06;;;;;;;14.68;10.75;;;;;;;10.38;72.29;100252.48;1802100;78;25582;-60
2023/05/23 02:35:33;;;;;;;19.12;11.43;;;;;;;10.40;72.37;100250.81;1759149;78;25878;-60
2023/05/23 02:38:00;;;;;;;14.65;10.35;;;;;;;10.42;72.41;100255.36;1786539;79;27490;-59
2023/05/23 02:40:26;;;;;;;19.98;10.85;;;;;;;10.41;72.28;100254.56;1771326;79;26234;-60
2023/05/23 02:42:56;;;;;;;19.30;10.88;;;;;;;10.43;72.64;100252.91;1785785;79;25469;-58
2023/05/23 02:45:21;;;;;;;21.23;11.40;;;;;;;10.43;72.57;100253.70;1758803;79;25718;-59
2023/05/23 02:47:47;;;;;;;17.77;10.20;;;;;;;10.44;72.44;100249.11;1796605;78;25417;-60
2023/05/23 02:50:13;;;;;;;17.17;11.93;;;;;;;10.44;72.46;100245.05;1787280;79;27469;-59
2023/05/23 02:52:41;;;;;;;17.40;9.60;;;;;;;10.43;72.26;100240.74;1812156;78;25368;-59
2023/05/23 02:55:08;;;;;;;18.45;11.18;;;;;;;10.41;72.38;100241.05;1791164;78;25396;-59
2023/05/23 02:57:35;;;;;;;18.00;11.93;;;;;;;10.43;72.47;100246.94;1774403;79;25610;-60
2023/05/23 03:00:02;;;;;;;18.42;10.75;;;;;;;10.44;72.59;100245.84;1798769;78;25823;-59
2023/05/23 03:02:28;;;;;;;17.00;10.85;;;;;;;10.44;72.45;100249.90;1762860;79;27260;-60
2023/05/23 03:04:56;;;;;;;15.00;10.53;;;;;;;10.44;72.40;100245.84;1796439;78;25857;-59
2023/05/23 03:07:22;;;;;;;12.70;9.50;;;;;;;10.48;72.62;100247.37;1788951;79;25363;-59
2023/05/23 03:09:48;;;;;;;18.57;10.30;;;;;;;10.50;72.57;100245.15;1766154;79;25403;-58
2023/05/23 03:12:14;;;;;;;17.98;10.35;;;;;;;10.50;72.49;100232.98;1746275;80;25443;-59
2023/05/23 03:14:40;;;;;;;15.03;9.85;;;;;;;10.51;72.52;100241.35;1770135;79;27496;-58
2023/05/23 03:17:06;;;;;;;19.77;10.18;;;;;;;10.55;72.68;100239.61;1780632;79;33018;-60
2023/05/23 03:19:32;;;;;;;15.23;10.58;;;;;;;10.58;72.54;100242.27;1784786;78;30048;-62
2023/05/23 03:21:58;;;;;;;15.48;9.88;;;;;;;10.57;72.64;100240.66;1788505;79;25472;-60
2023/05/23 03:24:24;;;;;;;15.18;10.10;;;;;;;10.60;72.61;100239.48;1795606;79;25389;-61
2023/05/23 03:26:51;;;;;;;16.25;9.80;;;;;;;10.61;72.65;100242.44;1776872;78;27416;-60
2023/05/23 03:29:17;;;;;;;14.40;9.50;;;;;;;10.64;72.99;100243.71;1812294;78;25801;-61
2023/05/23 03:31:43;;;;;;;14.33;9.68;;;;;;;10.68;73.21;100243.91;1808425;78;25407;-62
2023/05/23 03:34:10;;;;;;;15.40;9.95;;;;;;;10.74;73.02;100248.86;1807092;79;25590;-61
2023/05/23 03:36:38;;;;;;;11.08;8.85;;;;;;;10.77;72.82;100242.83;1794013;78;25827;-59
2023/05/23 03:39:05;;;;;;;13.20;9.43;;;;;;;10.82;72.67;100245.40;1785095;79;27540;-62
2023/05/23 03:41:31;;;;;;;13.18;9.43;;;;;;;10.90;73.02;100244.42;1800253;79;25514;-60
2023/05/23 03:43:58;;;;;;;11.28;8.50;;;;;;;10.93;72.73;100243.23;1796230;78;25445;-60
2023/05/23 03:46:24;;;;;;;12.88;8.90;;;;;;;10.97;72.76;100245.55;1788863;79;25556;-60
2023/05/23 03:48:50;;;;;;;11.18;8.58;;;;;;;11.02;72.73;100246.77;1788097;79;25511;-61
2023/05/23 03:51:17;;;;;;;13.58;9.30;;;;;;;11.09;72.51;100251.73;1792698;79;27439;-61
2023/05/23 03:53:43;;;;;;;16.50;9.98;;;;;;;11.15;72.66;100253.19;1801331;78;25709;-61
2023/05/23 03:56:09;;;;;;;15.43;9.00;;;;;;;11.21;72.94;100247.06;1787230;78;25365;-61
2023/05/23 03:58:36;;;;;;;14.98;8.90;;;;;;;11.28;72.68;100242.55;1765481;79;25595;-61
2023/05/23 04:01:02;;;;;;;13.78;9.10;;;;;;;11.35;72.63;100241.52;1753162;80;25460;-61
2023/05/23 04:03:31;;;;;;;17.25;8.58;;;;;;;11.42;72.52;100243.20;1791247;78;27564;-61
2023/05/23 04:05:59;;;;;;;15.30;9.43;;;;;;;11.50;72.63;100237.02;1786138;79;25494;-61
2023/05/23 04:08:28;;;;;;;13.70;9.00;;;;;;;11.58;72.68;100230.81;1800967;78;25452;-61
2023/05/23 04:10:54;;;;;;;10.78;8.30;;;;;;;11.67;72.37;100232.74;1778862;79;27693;-61
2023/05/23 04:13:22;;;;;;;9.83;7.62;;;;;;;11.77;72.50;100232.43;1791225;78;25424;-61
2023/05/23 04:15:48;;;;;;;10.93;7.60;;;;;;;11.85;72.28;100228.93;1788721;78;27502;-61
2023/05/23 04:18:16;;;;;;;11.10;7.25;;;;;;;11.95;72.38;100227.82;1787352;78;32809;-61
2023/05/23 04:20:42;;;;;;;14.95;7.30;;;;;;;12.07;72.40;100225.28;1807457;78;25604;-61
2023/05/23 04:23:08;;;;;;;11.50;7.25;;;;;;;12.17;71.96;100226.84;1798680;78;25585;-61
2023/05/23 04:25:34;;;;;;;9.70;7.33;;;;;;;12.26;71.74;100225.48;1781263;79;25449;-61
2023/05/23 04:28:00;;;;;;;13.78;8.43;;;;;;;12.36;71.46;100223.81;1798667;78;27458;-61
2023/05/23 04:30:29;;;;;;;12.68;7.40;;;;;;;12.46;71.46;100230.25;1798331;79;25453;-60
2023/05/23 04:32:57;;;;;;;13.93;7.80;;;;;;;12.57;71.45;100229.91;1780055;79;25425;-61
2023/05/23 04:35:23;;;;;;;9.73;6.80;;;;;;;12.67;70.98;100223.55;1788465;79;25840;-60
2023/05/23 04:37:55;;;;;;;8.73;6.47;;;;;;;12.79;70.71;100224.80;1800699;78;25574;-61
2023/05/23 04:40:18;;;;;;;12.73;6.97;;;;;;;12.89;70.44;100220.37;1792190;79;27720;-60
2023/05/23 04:42:45;;;;;;;8.30;6.53;;;;;;;13.00;70.27;100224.29;1780731;79;25564;-60
2023/05/23 04:45:12;;;;;;;13.53;7.35;;;;;;;13.11;69.91;100221.20;1790733;78;25551;-60
2023/05/23 04:47:38;;;;;;;11.53;7.03;;;;;;;13.24;70.04;100218.82;1802560;78;25474;-59
2023/05/23 04:50:06;;;;;;;9.60;6.62;;;;;;;13.37;69.91;100228.69;1799297;78;25464;-60
2023/05/23 04:52:32;;;;;;;11.22;6.83;;;;;;;13.51;70.08;100224.92;1796334;79;27492;-60
2023/05/23 04:55:00;;;;;;;8.80;6.08;;;;;;;13.62;69.63;100225.56;1761767;80;25500;-59
2023/05/23 04:57:26;;;;;;;8.33;6.10;;;;;;;13.74;69.20;100225.38;1782286;78;25356;-58
2023/05/23 04:59:52;;;;;;;8.90;5.30;;;;;;;13.88;68.22;100225.14;1789218;79;25820;-60
2023/05/23 05:02:18;;;;;;;10.85;5.37;;;;;;;14.00;67.94;100225.19;1793195;78;25385;-61
2023/05/23 05:04:45;;;;;;;8.48;5.58;;;;;;;14.14;68.06;100218.88;1793770;79;28461;-62
2023/05/23 05:07:11;;;;;;;7.97;5.58;;;;;;;14.29;67.55;100217.47;1801602;79;25640;-61
2023/05/23 05:09:37;;;;;;;12.68;6.45;;;;;;;14.43;67.79;100217.16;1796853;79;25593;-60
2023/05/23 05:12:05;;;;;;;10.03;5.60;;;;;;;14.58;67.27;100218.45;1779174;78;25755;-62
2023/05/23 05:14:31;;;;;;;8.35;5.70;;;;;;;14.72;66.97;100218.16;1722578;80;25730;-60
2023/05/23 05:16:58;;;;;;;8.53;5.58;;;;;;;14.85;66.80;100221.13;1809063;79;27523;-60
2023/05/23 05:19:25;;;;;;;7.03;4.80;;;;;;;15.02;66.33;100212.52;1795652;79;25708;-60
2023/05/23 05:21:51;;;;;;;7.83;4.90;;;;;;;15.18;66.21;100215.33;1776829;79;25885;-60
2023/05/23 05:24:19;;;;;;;10.00;5.03;;;;;;;15.35;65.70;100213.72;1776246;78;25958;-64
2023/05/23 05:26:47;;;;;;;9.35;4.90;;;;;;;15.54;64.99;100207.66;1786047;78;25493;-63
2023/05/23 05:29:14;;;;;;;6.53;4.75;;;;;;;15.77;64.11;100204.47;1795437;79;27446;-61
2023/05/23 05:31:40;;;;;;;10.65;4.97;;;;;;;16.00;63.71;100204.13;1798530;78;25535;-61
2023/05/23 05:34:06;;;;;;;5.40;4.37;;;;;;;16.21;63.76;100201.78;1787294;79;25383;-61
2023/05/23 05:36:32;;;;;;;8.05;4.35;;;;;;;16.44;62.44;100204.13;1791578;79;25521;-61
2023/05/23 05:38:59;;;;;;;8.40;4.37;;;;;;;16.64;61.59;100199.36;1777930;79;25703;-62
2023/05/23 05:41:25;;;;;;;7.15;4.10;;;;;;;16.89;61.86;100206.26;1796456;78;27508;-61
2023/05/23 05:43:52;;;;;;;6.75;4.20;;;;;;;17.14;60.67;100208.77;1773947;78;25753;-57
2023/05/23 05:46:18;;;;;;;6.42;4.10;;;;;;;17.37;60.29;100204.80;1794162;79;25515;-58
2023/05/23 05:48:46;;;;;;;10.10;4.00;;;;;;;17.59;59.10;100212.09;1798767;79;25486;-57
2023/05/23 05:51:12;;;;;;;6.83;3.75;;;;;;;17.76;58.45;100208.14;1795511;79;25451;-55
2023/05/23 05:53:38;;;;;;;5.17;4.35;;;;;;;17.96;58.15;100204.86;1786619;79;29674;-56
2023/05/23 05:56:07;;;;;;;7.40;3.85;;;;;;;18.16;57.68;100205.05;1787131;79;25394;-55
2023/05/23 05:58:33;;;;;;;6.45;4.45;;;;;;;18.35;57.55;100198.75;1794046;79;25586;-54
2023/05/23 06:01:00;;;;;;;6.72;4.60;;;;;;;18.56;56.77;100194.80;1799914;78;25604;-55
2023/05/23 06:03:26;;;;;;;4.97;4.20;;;;;;;18.73;54.96;100203.11;1790287;79;25452;-54
2023/05/23 06:05:52;;;;;;;14.40;4.35;;;;;;;18.87;55.12;100201.23;1787295;79;27515;-53
2023/05/23 06:08:19;;;;;;;16.10;4.90;;;;;;;19.03;55.30;100204.03;1785044;78;27406;-54
2023/05/23 06:10:45;;;;;;;7.05;4.42;;;;;;;19.16;54.96;100199.12;1797310;79;25588;-54
2023/05/23 06:13:11;;;;;;;8.63;4.03;;;;;;;19.34;54.83;100191.16;1792076;78;25673;-53
2023/05/23 06:15:37;;;;;;;5.65;3.90;;;;;;;19.46;52.59;100194.25;1780363;79;25745;-55
2023/05/23 06:18:04;;;;;;;6.45;4.08;;;;;;;19.56;52.72;100188.12;1806837;78;27613;-53
2023/05/23 06:20:30;;;;;;;5.45;3.80;;;;;;;19.70;52.17;100188.88;1791247;79;25790;-56
2023/05/23 06:22:56;;;;;;;10.15;4.62;;;;;;;19.83;50.97;100192.17;1791398;79;25871;-57
2023/05/23 06:25:22;;;;;;;18.10;16.45;;;;;;;19.97;51.36;100186.05;1770060;79;25733;-55
2023/05/23 06:27:48;;;;;;;6.40;4.10;;;;;;;20.14;51.08;100186.04;1784084;78;25670;-56
2023/05/23 06:30:15;;;;;;;8.20;4.12;;;;;;;20.34;50.67;100185.27;1796929;78;27501;-56
2023/05/23 06:32:42;;;;;;;9.63;4.30;;;;;;;20.52;50.53;100181.31;1792602;78;25580;-56
2023/05/23 06:35:09;;;;;;;7.53;3.87;;;;;;;20.70;49.84;100180.91;1781629;78;25518;-56
2023/05/23 06:37:35;;;;;;;7.05;4.85;;;;;;;20.83;48.76;100177.86;1793622;79;26196;-54
2023/05/23 06:40:04;;;;;;;9.85;4.33;;;;;;;20.99;48.28;100173.45;1791509;78;25428;-55
2023/05/23 06:42:30;;;;;;;6.50;4.20;;;;;;;21.14;48.32;100181.20;1786770;78;27490;-56
2023/05/23 06:44:56;;;;;;;4.53;3.95;;;;;;;21.31;47.98;100175.02;1777210;79;25945;-55
2023/05/23 06:47:23;;;;;;;8.80;4.20;;;;;;;21.50;47.35;100173.17;1807061;79;25452;-56
2023/05/23 06:49:49;;;;;;;8.38;4.10;;;;;;;21.70;47.23;100168.93;1802640;78;25589;-56
2023/05/23 06:52:15;;;;;;;7.28;3.70;;;;;;;21.93;46.81;100165.05;1790987;79;25451;-53
2023/05/23 06:54:42;;;;;;;7.55;4.35;;;;;;;22.17;46.54;100171.82;1777906;79;27549;-53
2023/05/23 06:57:09;;;;;;;4.22;3.55;;;;;;;22.26;43.16;100179.10;1786160;79;25503;-52
2023/05/23 06:59:35;;;;;;;4.78;3.62;;;;;;;22.24;42.58;100169.67;1802690;79;25597;-53
2023/05/23 07:02:01;;;;;;;4.03;3.17;;;;;;;22.29;42.52;100165.18;1794983;78;25535;-54
2023/05/23 07:04:28;;;;;;;5.30;3.40;;;;;;;22.36;42.30;100159.07;1808230;78;25591;-55
2023/05/23 07:06:54;;;;;;;9.05;3.52;;;;;;;22.49;42.24;100153.16;1794474;79;27527;-52
2023/05/23 07:09:20;;;;;;;4.08;3.15;;;;;;;22.70;41.58;100151.01;1778081;79;27417;-52
2023/05/23 07:11:46;;;;;;;4.87;3.15;;;;;;;22.83;40.92;100148.61;1777017;79;25541;-55
2023/05/23 07:14:12;;;;;;;8.33;3.20;;;;;;;22.95;40.99;100146.81;1775689;79;25598;-54
2023/05/23 07:16:39;;;;;;;11.68;3.00;;;;;;;23.10;40.24;100141.52;1791987;78;25420;-55
2023/05/23 07:19:05;;;;;;;4.42;3.27;;;;;;;23.21;40.42;100139.32;1801577;78;27473;-55
2023/05/23 07:21:31;;;;;;;5.65;3.08;;;;;;;23.33;39.01;100145.78;1781923;78;25803;-56
2023/05/23 07:23:58;;;;;;;8.63;3.58;;;;;;;23.47;39.21;100135.27;1791967;79;25646;-55
2023/05/23 07:26:26;;;;;;;8.60;3.20;;;;;;;23.58;39.07;100134.64;1781879;79;25545;-53
2023/05/23 07:28:52;;;;;;;4.92;3.27;;;;;;;23.71;37.58;100134.17;1794223;79;25606;-53
2023/05/23 07:31:18;;;;;;;5.50;3.70;;;;;;;23.84;38.05;100134.72;1805997;79;27525;-56
2023/05/23 07:33:45;;;;;;;7.78;3.62;;;;;;;24.04;37.99;100129.47;1796348;79;25377;-53
2023/05/23 07:36:11;;;;;;;5.17;2.77;;;;;;;24.27;37.79;100128.72;1778646;79;25517;-55
2023/05/23 07:38:37;;;;;;;3.20;2.75;;;;;;;24.52;38.12;100122.97;1773262;79;25513;-54
2023/05/23 07:41:03;;;;;;;3.60;2.70;;;;;;;24.90;38.46;100125.20;1793113;79;25359;-52
2023/05/23 07:43:29;;;;;;;6.25;2.72;;;;;;;25.22;36.15;100139.30;1779676;78;28023;-51
2023/05/23 07:45:55;;;;;;;3.72;2.90;;;;;;;25.25;33.89;100129.36;1789256;79;25425;-51
2023/05/23 07:48:25;;;;;;;3.30;2.80;;;;;;;25.35;35.23;100123.75;1798483;78;25557;-51
2023/05/23 07:50:53;;;;;;;6.05;2.75;;;;;;;25.59;35.25;100132.16;1796405;79;25522;-51
2023/05/23 07:53:21;;;;;;;3.83;3.27;;;;;;;25.80;35.09;100122.75;1791561;79;25776;-51
2023/05/23 07:55:48;;;;;;;7.17;2.87;;;;;;;26.12;34.77;100117.95;1783266;79;28283;-54
2023/05/23 07:58:14;;;;;;;4.78;3.05;;;;;;;26.18;33.75;100115.67;1792841;79;25510;-51
2023/05/23 08:00:41;;;;;;;6.00;3.40;;;;;;;26.20;32.82;100124.34;1758621;79;25557;-54
2023/05/23 08:03:07;;;;;;;3.05;2.72;;;;;;;26.10;32.78;100115.61;1756105;79;26206;-52
2023/05/23 08:05:33;;;;;;;5.25;3.20;;;;;;;26.26;32.70;100112.20;1791194;78;25456;-52
2023/05/23 08:07:59;;;;;;;5.40;2.92;;;;;;;26.36;32.50;100109.08;1784538;79;28327;-51
2023/05/23 08:10:28;;;;;;;8.08;2.95;;;;;;;26.50;32.68;100110.21;1785143;78;25715;-54
2023/05/23 08:12:55;;;;;;;5.72;2.55;;;;;;;26.79;32.68;100104.95;1783403;79;25436;-51
2023/05/23 08:15:23;;;;;;;6.20;3.00;;;;;;;26.90;30.73;100111.71;1793121;79;25576;-53
2023/05/23 08:17:50;;;;;;;5.83;2.62;;;;;;;26.71;29.90;100103.52;1792703;78;25430;-53
2023/05/23 08:20:18;;;;;;;5.25;2.83;;;;;;;26.75;31.16;100092.35;1789630;79;27533;-51
2023/05/23 08:22:46;;;;;;;6.55;2.92;;;;;;;27.15;32.14;100096.55;1787045;78;25542;-63
2023/05/23 08:25:12;;;;;;;5.17;2.50;;;;;;;27.56;31.43;100103.03;1777238;79;25785;-56
2023/05/23 08:27:38;;;;;;;3.70;2.70;;;;;;;27.80;29.01;100104.91;1781555;79;26181;-55
2023/05/23 08:30:11;;;;;;;6.40;2.60;;;;;;;27.68;29.56;100096.64;1794761;79;25531;-56
2023/05/23 08:32:37;;;;;;;3.00;2.70;;;;;;;27.73;29.40;100097.52;1780790;78;28088;-60
2023/05/23 08:35:08;;;;;;;4.55;2.67;;;;;;;27.67;28.46;100101.42;1781358;79;25537;-62
2023/05/23 08:37:35;;;;;;;5.92;3.22;;;;;;;27.78;29.30;100096.23;1756579;80;25602;-56
2023/05/23 08:40:10;;;;;;;5.10;2.77;;;;;;;28.06;28.34;100093.39;1782927;79;26063;-61
2023/05/23 08:42:36;;;;;;;2.67;2.27;;;;;;;28.03;27.64;100094.29;1790057;78;25846;-58
2023/05/23 08:45:08;;;;;;;2.83;2.52;;;;;;;27.98;28.20;100087.24;1783725;79;27467;-58
2023/05/23 08:47:37;;;;;;;4.65;2.95;;;;;;;28.31;27.82;100085.22;1786946;79;25616;-59
2023/05/23 08:50:13;;;;;;;7.45;2.70;;;;;;;28.64;28.40;100087.99;1790309;79;26653;-61
2023/05/23 08:52:44;;;;;;;3.22;2.35;;;;;;;29.10;27.83;100090.72;1780567;79;25522;-61
2023/05/23 08:55:11;;;;;;;2.75;2.55;;;;;;;29.27;26.69;100090.65;1790941;79;25475;-62
2023/05/23 08:57:42;;;;;;;4.45;2.90;;;;;;;29.07;26.63;100083.23;1799381;78;27542;-57
2023/05/23 09:00:13;;;;;;;5.00;2.60;;;;;;;28.81;26.90;100078.19;1787229;79;27362;-60
2023/05/23 09:05:56;;;;;;;5.37;2.83;;;;;;;29.10;27.07;100064.27;1819644;74;27451;31
2023/05/23 09:08:26;;;;;;;5.03;2.50;;;;;;;29.28;26.17;100068.55;1841100;76;25580;-54
2023/05/23 09:10:53;;;;;;;4.47;2.58;;;;;;;29.19;25.72;100072.00;1841313;76;27652;-51
2023/05/23 09:13:20;;;;;;;3.85;2.42;;;;;;;29.01;25.29;100062.72;1817574;77;25896;-53
2023/05/23 09:16:03;;;;;;;6.47;2.60;;;;;;;28.94;26.60;100070.66;1840285;77;25336;-53
2023/05/23 09:18:42;;;;;;;17.40;15.68;;;;;;;28.78;26.03;100065.17;1840950;77;26196;-56
2023/05/23 09:21:09;;;;;;;;;;;;;;;28.53;26.33;100064.42;1842641;77;25549;-56
2023/05/23 09:23:39;;;;;;;4.47;2.92;;;;;;;28.26;26.58;100066.89;1840122;77;27439;-57
2023/05/23 09:26:09;;;;;;;4.15;2.62;;;;;;;28.46;27.25;100060.61;1839697;77;26037;-57
2023/05/23 09:28:39;;;;;;;8.15;2.72;;;;;;;28.77;26.68;100050.46;1816610;78;25610;-56
2023/05/23 09:31:07;;;;;;;5.33;2.75;;;;;;;28.91;26.54;100059.02;1840302;77;25581;-57
2023/05/23 09:33:49;;;;;;;7.25;2.70;;;;;;;28.63;26.52;100071.12;1841335;77;25821;-56
2023/05/23 09:36:16;;;;;;;6.80;2.55;;;;;;;28.69;26.15;100065.81;1839845;77;27545;-58
2023/05/23 09:38:47;;;;;;;5.60;2.77;;;;;;;29.15;26.89;100051.78;1842938;76;25536;-57
2023/05/23 09:41:14;;;;;;;3.33;2.60;;;;;;;29.79;26.32;100067.20;1840531;77;25456;-57
2023/05/23 09:43:53;;;;;;;2.50;2.30;;;;;;;29.94;25.54;100058.55;1816774;77;25586;-57
2023/05/23 09:46:21;;;;;;;3.45;2.77;;;;;;;30.06;23.38;100061.77;1816888;77;25468;-57
2023/05/23 09:48:50;;;;;;;3.15;2.15;;;;;;;29.84;24.64;100055.48;1840659;77;27424;-58
2023/05/23 09:51:22;;;;;;;2.90;2.60;;;;;;;29.91;24.50;100060.06;1840729;77;25698;-55
2023/05/23 09:53:49;;;;;;;3.72;2.15;;;;;;;30.06;24.25;100058.98;1840024;77;25599;-58
2023/05/23 09:56:17;;;;;;;2.25;2.00;;;;;;;30.04;24.04;100060.05;1841707;77;26275;-56
2023/05/23 09:58:49;;;;;;;4.65;2.30;;;;;;;30.21;24.51;100050.92;1816657;77;25535;-58
2023/05/23 10:01:17;;;;;;;4.33;2.65;;;;;;;30.75;24.34;100045.66;1842478;77;28502;-57
2023/05/23 10:03:50;;;;;;;5.17;2.33;;;;;;;31.21;23.82;100054.35;1841996;77;25386;-57
2023/05/23 10:06:35;;;;;;;3.15;2.42;;;;;;;31.32;22.41;100055.95;1840222;77;25480;-57
2023/05/23 10:09:04;;;;;;;4.97;2.65;;;;;;;31.03;22.95;100048.03;1839434;77;25543;-56
2023/05/23 10:11:36;;;;;;;2.75;2.40;;;;;;;30.89;21.93;100056.30;1841770;77;25518;-58
2023/05/23 10:14:07;;;;;;;5.30;2.30;;;;;;;30.70;22.94;100040.67;1845436;77;27598;-57
2023/05/23 10:16:54;;;;;;;3.85;2.50;;;;;;;30.60;21.95;100045.39;1841056;77;25571;-55
2023/05/23 10:19:28;;;;;;;4.55;2.45;;;;;;;30.42;22.93;100041.83;1841058;77;25573;-57
2023/05/23 10:22:01;;;;;;;3.55;2.17;;;;;;;30.97;22.06;100035.11;1842858;76;25482;-57
2023/05/23 10:24:28;;;;;;;5.62;2.70;;;;;;;30.97;22.06;100035.11;1841255;77;25358;-55
2023/05/23 10:26:56;;;;;;;3.55;2.70;;;;;;;30.69;21.07;100045.45;1842061;77;27446;-52
2023/05/23 10:29:24;;;;;;;2.52;2.30;;;;;;;30.30;21.62;100045.42;1845497;77;25413;-56
2023/05/23 10:31:52;;;;;;;4.08;2.55;;;;;;;30.03;20.46;100041.13;1845703;76;25579;-55
2023/05/23 10:34:56;;;;;;;3.22;2.62;;;;;;;29.37;22.03;100038.02;1842903;77;27748;-55
2023/05/23 10:37:37;;;;;;;6.50;2.58;;;;;;;29.17;21.50;100044.59;1839808;78;25532;-57
2023/05/23 10:40:31;;;;;;;3.55;2.40;;;;;;;29.06;22.59;100042.09;1839842;77;28163;-57
2023/05/23 10:43:34;;;;;;;2.85;2.10;;;;;;;29.39;22.98;100040.55;1840192;77;25472;-55
2023/05/23 10:46:00;;;;;;;3.20;2.60;;;;;;;29.60;22.63;100039.71;1790130;77;25628;-56
2023/05/23 10:48:36;;;;;;;2.60;2.40;;;;;;;30.05;22.05;100047.66;1810889;77;25645;-52
2023/05/23 10:51:11;;;;;;;12.55;9.58;;;;;;;30.21;22.27;100025.20;1746138;80;25652;-51
2023/05/23 10:53:41;;;;;;;6.53;2.90;;;;;;;30.39;22.63;100032.19;1789877;78;27491;-51
2023/05/23 10:56:12;;;;;;;5.50;2.55;;;;;;;30.66;21.35;100031.00;1793713;78;25646;-51
2023/05/23 10:58:38;;;;;;;10.08;7.10;;;;;;;30.95;21.26;100034.17;1809498;77;25658;-51
2023/05/23 11:01:08;;;;;;;13.83;8.83;;;;;;;30.54;21.25;100040.98;1787494;78;25582;-52
2023/05/23 11:03:50;;;;;;;7.40;6.70;;;;;;;29.86;21.75;100027.94;1803498;77;25566;-51
2023/05/23 11:06:38;;;;;;;3.55;2.77;;;;;;;29.57;21.74;100036.42;1813610;78;27455;-52
2023/05/23 11:09:20;;;;;;;2.83;2.47;;;;;;;29.18;22.17;100017.52;1798629;79;25696;-51
2023/05/23 11:12:04;;;;;;;6.67;2.70;;;;;;;29.19;22.77;100028.21;1772167;77;25475;-52
2023/05/23 11:14:36;;;;;;;6.20;3.02;;;;;;;29.32;22.56;100018.48;1795351;79;25674;-51
2023/05/23 11:17:18;;;;;;;3.92;2.60;;;;;;;29.38;22.28;100018.70;1796751;79;25498;-51
2023/05/23 11:20:08;;;;;;;2.70;2.40;;;;;;;29.36;22.81;100014.97;1806118;78;27233;-54
2023/05/23 11:22:36;;;;;;;4.70;3.20;;;;;;;29.49;23.60;100003.84;1821244;77;25461;-50
2023/05/23 11:25:09;;;;;;;5.80;2.90;;;;;;;30.20;23.79;100001.94;1840677;77;25371;-53
2023/05/23 11:27:40;;;;;;;3.98;3.37;;;;;;;30.71;23.66;100003.13;1840765;77;25552;-51
2023/05/23 11:30:16;;;;;;;5.28;2.90;;;;;;;31.09;23.04;100006.32;1839591;77;25401;-52